createdAt,value
2023-04-07T00:00:50.739Z,8.73
2023-04-07T00:03:20.894Z,9.19
2023-04-07T00:05:51.107Z,9.00
2023-04-07T00:08:21.234Z,8.72
2023-04-07T00:10:51.003Z,8.90
2023-04-07T00:13:20.752Z,8.77
2023-04-07T00:15:53.110Z,8.69
2023-04-07T00:18:22.935Z,8.74
2023-04-07T00:20:52.809Z,8.57
2023-04-07T00:23:22.876Z,8.61
2023-04-07T00:25:52.780Z,8.67
2023-04-07T00:28:22.876Z,8.28
2023-04-07T00:30:55.356Z,8.21
2023-04-07T00:33:25.184Z,8.63
2023-04-07T00:35:55.150Z,8.56
2023-04-07T00:38:24.896Z,8.27
2023-04-07T00:41:01.005Z,8.51
2023-04-07T00:43:30.806Z,8.45
2023-04-07T00:46:03.942Z,8.46
2023-04-07T00:48:34.435Z,8.03
2023-04-07T00:51:05.960Z,8.45
2023-04-07T00:53:36.108Z,7.93
2023-04-07T00:56:06.643Z,7.38
2023-04-07T00:58:36.472Z,7.26
2023-04-07T01:01:13.758Z,7.74
2023-04-07T01:03:49.532Z,7.87
2023-04-07T01:06:23.043Z,7.52
2023-04-07T01:08:57.591Z,8.25
2023-04-07T01:11:31.347Z,8.02
2023-04-07T01:14:03.388Z,8.42
2023-04-07T01:16:46.005Z,8.21
2023-04-07T01:19:22.773Z,8.39
2023-04-07T01:22:00.983Z,8.03
2023-04-07T01:24:49.073Z,8.35
2023-04-07T01:27:28.102Z,7.89
2023-04-07T01:30:04.343Z,8.60
2023-04-07T01:32:37.072Z,8.53
2023-04-07T01:35:10.266Z,8.21
2023-04-07T01:37:41.644Z,8.69
2023-04-07T01:40:12.949Z,8.68
2023-04-07T01:42:43.933Z,8.67
2023-04-07T01:45:17.879Z,8.71
2023-04-07T01:47:48.413Z,8.52
2023-04-07T01:50:19.259Z,8.58
2023-04-07T01:52:49.258Z,8.78
2023-04-07T01:55:19.115Z,8.97
2023-04-07T01:57:58.129Z,8.92
2023-04-07T02:00:30.818Z,9.11
2023-04-07T02:03:08.393Z,9.18
2023-04-07T02:05:41.550Z,8.76
2023-04-07T02:08:14.892Z,8.55
2023-04-07T02:10:45.531Z,9.16
2023-04-07T02:13:19.685Z,9.15
2023-04-07T02:15:56.558Z,9.01
2023-04-07T02:18:28.090Z,8.67
2023-04-07T02:20:59.127Z,8.77
2023-04-07T02:23:29.022Z,8.71
2023-04-07T02:26:02.087Z,8.74
2023-04-07T02:28:31.904Z,8.88
2023-04-07T02:31:04.338Z,8.75
2023-04-07T02:33:35.657Z,8.84
2023-04-07T02:36:05.520Z,8.87
2023-04-07T02:38:35.529Z,8.92
2023-04-07T02:41:07.633Z,8.92
2023-04-07T02:43:37.420Z,8.91
2023-04-07T02:46:09.956Z,8.79
2023-04-07T02:48:39.807Z,8.81
2023-04-07T02:51:09.661Z,8.40
2023-04-07T02:53:39.564Z,8.72
2023-04-07T02:56:09.886Z,8.71
2023-04-07T02:58:39.724Z,8.28
2023-04-07T03:01:12.234Z,8.45
2023-04-07T03:03:42.535Z,8.42
2023-04-07T03:06:23.084Z,8.48
2023-04-07T03:09:04.447Z,8.38
2023-04-07T03:11:34.277Z,8.38
2023-04-07T03:14:04.211Z,8.49
2023-04-07T03:16:37.914Z,7.92
2023-04-07T03:19:12.954Z,8.42
2023-04-07T03:21:48.826Z,8.37
2023-04-07T03:24:18.762Z,8.35
2023-04-07T03:26:51.489Z,8.04
2023-04-07T03:29:30.152Z,8.36
2023-04-07T03:32:02.675Z,8.46
2023-04-07T03:34:32.507Z,8.33
2023-04-07T03:37:02.392Z,8.34
2023-04-07T03:39:37.509Z,8.30
2023-04-07T03:42:15.835Z,8.52
2023-04-07T03:44:46.649Z,8.33
2023-04-07T03:47:19.225Z,8.58
2023-04-07T03:49:55.536Z,7.77
2023-04-07T03:52:25.994Z,8.56
2023-04-07T03:55:02.221Z,8.54
2023-04-07T03:57:34.997Z,8.58
2023-04-07T04:00:06.045Z,8.60
2023-04-07T04:02:48.730Z,8.77
2023-04-07T04:05:22.476Z,8.72
2023-04-07T04:07:53.644Z,8.62
2023-04-07T04:10:25.725Z,8.47
2023-04-07T04:12:57.116Z,8.64
2023-04-07T04:15:26.921Z,8.55
2023-04-07T04:17:59.992Z,8.35
2023-04-07T04:20:30.143Z,8.63
2023-04-07T04:23:00.029Z,8.26
2023-04-07T04:25:30.036Z,8.60
2023-04-07T04:28:01.017Z,8.42
2023-04-07T04:30:31.106Z,8.61
2023-04-07T04:33:07.853Z,8.29
2023-04-07T04:35:44.470Z,8.52
2023-04-07T04:38:17.885Z,8.57
2023-04-07T04:40:54.494Z,8.55
2023-04-07T04:43:29.678Z,8.44
2023-04-07T04:45:59.904Z,8.42
2023-04-07T04:48:34.933Z,7.72
2023-04-07T04:51:08.906Z,7.86
2023-04-07T04:53:40.860Z,7.74
2023-04-07T04:56:11.390Z,7.71
2023-04-07T04:58:48.823Z,7.50
2023-04-07T05:01:27.137Z,7.36
2023-04-07T05:04:09.880Z,7.12
2023-04-07T05:06:42.075Z,6.68
2023-04-07T05:09:14.553Z,6.86
2023-04-07T05:11:47.425Z,6.58
2023-04-07T05:14:20.662Z,6.69
2023-04-07T05:16:57.172Z,6.51
2023-04-07T05:19:33.783Z,6.38
2023-04-07T05:22:10.770Z,6.19
2023-04-07T05:24:47.131Z,6.13
2023-04-07T05:27:16.894Z,6.13
2023-04-07T05:29:49.633Z,6.16
2023-04-07T05:32:27.780Z,6.50
2023-04-07T05:35:02.685Z,6.58
2023-04-07T05:37:36.115Z,6.33
2023-04-07T05:40:09.486Z,6.70
2023-04-07T05:42:39.270Z,6.63
2023-04-07T05:45:10.806Z,7.17
2023-04-07T05:47:44.555Z,6.87
2023-04-07T05:50:17.374Z,7.15
2023-04-07T05:52:49.803Z,6.75
2023-04-07T05:55:27.340Z,7.02
2023-04-07T05:57:58.237Z,7.14
2023-04-07T06:00:32.053Z,7.28
2023-04-07T06:03:08.358Z,7.43
2023-04-07T06:05:52.600Z,7.43
2023-04-07T06:08:24.205Z,7.52
2023-04-07T06:10:54.010Z,7.68
2023-04-07T06:13:23.793Z,8.03
2023-04-07T06:15:53.542Z,8.23
2023-04-07T06:18:23.335Z,8.41
2023-04-07T06:20:55.887Z,8.48
2023-04-07T06:23:25.764Z,8.43
2023-04-07T06:25:55.589Z,8.40
2023-04-07T06:28:25.903Z,8.26
2023-04-07T06:30:57.604Z,7.96
2023-04-07T06:33:28.813Z,7.76
2023-04-07T06:36:03.332Z,8.20
2023-04-07T06:38:33.491Z,8.19
2023-04-07T06:41:03.347Z,7.98
2023-04-07T06:43:33.332Z,7.89
2023-04-07T06:46:09.930Z,7.73
2023-04-07T06:48:39.914Z,7.82
2023-04-07T06:51:12.422Z,7.88
2023-04-07T06:53:42.177Z,7.91
2023-04-07T06:56:13.676Z,8.02
2023-04-07T06:58:43.588Z,7.95
2023-04-07T07:01:13.349Z,8.01
2023-04-07T07:03:43.261Z,7.87
2023-04-07T07:06:15.718Z,7.98
2023-04-07T07:08:45.515Z,8.28
2023-04-07T07:11:15.280Z,8.36
2023-04-07T07:13:45.352Z,8.56
2023-04-07T07:16:15.794Z,8.59
2023-04-07T07:18:45.794Z,8.63
2023-04-07T07:21:20.498Z,8.56
2023-04-07T07:23:50.392Z,8.71
2023-04-07T07:26:21.031Z,8.73
2023-04-07T07:28:50.844Z,8.83
2023-04-07T07:31:20.694Z,8.80
2023-04-07T07:33:52.017Z,9.00
2023-04-07T07:36:25.137Z,8.98
2023-04-07T07:38:55.406Z,8.93
2023-04-07T07:41:26.687Z,8.95
2023-04-07T07:43:56.709Z,8.71
2023-04-07T07:46:27.508Z,9.06
2023-04-07T07:48:57.266Z,9.05
2023-04-07T07:51:30.194Z,9.01
2023-04-07T07:54:00.245Z,9.03
2023-04-07T07:56:30.451Z,8.93
2023-04-07T07:59:00.344Z,8.97
2023-04-07T08:01:30.412Z,9.35
2023-04-07T08:04:00.404Z,9.53
2023-04-07T08:06:33.748Z,9.23
2023-04-07T08:09:03.797Z,9.24
2023-04-07T08:11:33.814Z,9.79
2023-04-07T08:14:03.943Z,9.83
2023-04-07T08:16:33.930Z,9.46
2023-04-07T08:19:04.056Z,9.86
2023-04-07T08:21:36.896Z,9.87
2023-04-07T08:24:07.344Z,9.52
2023-04-07T08:26:37.799Z,9.65
2023-04-07T08:29:08.125Z,9.88
2023-04-07T08:31:38.119Z,10.16
2023-04-07T08:34:08.040Z,10.24
2023-04-07T08:36:43.945Z,9.76
2023-04-07T08:39:17.887Z,10.10
2023-04-07T08:41:50.006Z,10.44
2023-04-07T08:44:22.953Z,10.52
2023-04-07T08:46:56.253Z,10.85
2023-04-07T08:49:28.149Z,10.92
2023-04-07T08:52:05.232Z,10.95
2023-04-07T08:54:37.937Z,10.65
2023-04-07T08:57:09.915Z,10.62
2023-04-07T08:59:44.422Z,10.98
2023-04-07T09:02:17.095Z,10.84
2023-04-07T09:04:48.197Z,10.76
2023-04-07T09:07:23.589Z,11.05
2023-04-07T09:09:53.726Z,10.84
2023-04-07T09:12:25.338Z,11.08
2023-04-07T09:15:00.998Z,11.08
2023-04-07T09:17:34.121Z,10.62
2023-04-07T09:20:05.245Z,10.94
2023-04-07T09:22:42.672Z,10.87
2023-04-07T09:25:14.850Z,10.72
2023-04-07T09:27:44.720Z,10.85
2023-04-07T09:30:16.633Z,10.88
2023-04-07T09:32:46.531Z,10.87
2023-04-07T09:35:16.371Z,10.70
2023-04-07T09:38:06.467Z,10.97
2023-04-07T09:40:36.818Z,10.79
2023-04-07T09:43:08.235Z,11.01
2023-04-07T09:45:39.613Z,11.20
2023-04-07T09:48:09.991Z,11.16
2023-04-07T09:50:42.288Z,11.06
2023-04-07T09:53:14.683Z,11.43
2023-04-07T09:55:45.357Z,11.56
2023-04-07T09:58:17.127Z,11.71
2023-04-07T10:00:48.280Z,11.61
2023-04-07T10:03:18.514Z,11.66
2023-04-07T10:05:49.779Z,11.88
2023-04-07T10:08:22.386Z,11.79
2023-04-07T10:10:52.778Z,12.07
2023-04-07T10:13:24.505Z,11.93
2023-04-07T10:15:55.194Z,12.15
2023-04-07T10:18:28.969Z,12.16
2023-04-07T10:20:59.991Z,11.95
2023-04-07T10:23:40.336Z,12.16
2023-04-07T10:26:11.829Z,12.32
2023-04-07T10:28:46.482Z,12.31
2023-04-07T10:31:17.112Z,12.68
2023-04-07T10:33:52.239Z,12.64
2023-04-07T10:36:23.293Z,12.73
2023-04-07T10:39:24.286Z,12.66
2023-04-07T10:41:57.399Z,12.84
2023-04-07T10:44:50.696Z,12.95
2023-04-07T10:47:20.535Z,12.58
2023-04-07T10:50:18.729Z,12.87
2023-04-07T10:52:49.487Z,12.95
2023-04-07T10:55:33.314Z,13.31
2023-04-07T10:58:24.755Z,13.47
2023-04-07T11:01:30.494Z,13.50
2023-04-07T11:04:05.082Z,13.66
2023-04-07T11:06:34.980Z,13.73
2023-04-07T11:09:04.735Z,13.88
2023-04-07T11:11:46.451Z,13.95
2023-04-07T11:14:28.643Z,13.92
2023-04-07T11:16:59.342Z,13.43
2023-04-07T11:19:29.130Z,13.76
2023-04-07T11:22:29.347Z,13.85
2023-04-07T11:25:00.336Z,13.53
2023-04-07T11:27:30.166Z,13.86
2023-04-07T11:30:03.381Z,13.98
2023-04-07T11:32:33.138Z,13.69
2023-04-07T11:35:02.945Z,13.88
2023-04-07T11:37:32.889Z,14.06
2023-04-07T11:40:02.704Z,13.06
2023-04-07T11:42:36.366Z,13.98
2023-04-07T11:45:19.358Z,14.54
2023-04-07T11:47:51.163Z,14.20
2023-04-07T11:50:41.476Z,14.22
2023-04-07T11:53:12.201Z,14.04
2023-04-07T11:55:42.223Z,14.13
2023-04-07T11:58:12.752Z,14.19
2023-04-07T12:01:05.154Z,14.19
2023-04-07T12:03:35.079Z,14.20
2023-04-07T12:06:05.708Z,14.24
2023-04-07T12:08:42.926Z,14.41
2023-04-07T12:11:13.504Z,14.15
2023-04-07T12:13:43.321Z,13.50
2023-04-07T12:16:15.702Z,14.38
2023-04-07T12:18:45.491Z,14.52
2023-04-07T12:21:15.842Z,14.47
2023-04-07T12:23:46.152Z,14.42
2023-04-07T12:26:16.438Z,14.42
2023-04-07T12:28:46.185Z,14.43
2023-04-07T12:31:18.566Z,14.57
2023-04-07T12:33:48.651Z,14.62
2023-04-07T12:36:18.729Z,14.70
2023-04-07T12:38:48.577Z,14.56
2023-04-07T12:41:18.314Z,14.40
2023-04-07T12:43:48.387Z,14.43
2023-04-07T12:46:21.895Z,14.50
2023-04-07T12:48:51.785Z,14.68
2023-04-07T12:51:21.598Z,14.71
2023-04-07T12:53:51.432Z,14.69
2023-04-07T12:56:22.573Z,14.62
2023-04-07T12:58:53.625Z,14.65
2023-04-07T13:01:26.198Z,14.81
2023-04-07T13:03:56.429Z,14.87
2023-04-07T13:06:26.258Z,14.90
2023-04-07T13:08:56.644Z,14.76
2023-04-07T13:11:26.560Z,14.91
2023-04-07T13:13:57.962Z,15.01
2023-04-07T13:16:31.721Z,15.08
2023-04-07T13:19:02.222Z,15.08
2023-04-07T13:24:05.179Z,15.03
2023-04-07T13:26:34.890Z,15.14
2023-04-07T13:29:04.636Z,15.61
2023-04-07T13:31:36.980Z,15.29
2023-04-07T13:34:06.739Z,15.15
2023-04-07T13:36:37.664Z,15.19
2023-04-07T13:39:07.434Z,14.97
2023-04-07T13:41:37.257Z,14.91
2023-04-07T13:44:07.059Z,15.00
2023-04-07T13:46:39.399Z,15.03
2023-04-07T13:49:09.171Z,15.14
2023-04-07T13:51:38.968Z,15.26
2023-04-07T13:54:08.711Z,15.32
2023-04-07T13:56:38.728Z,15.09
2023-04-07T13:59:08.846Z,15.23
2023-04-07T14:01:42.043Z,15.27
2023-04-07T14:04:12.590Z,15.42
2023-04-07T14:06:42.386Z,15.42
2023-04-07T14:09:12.161Z,15.31
2023-04-07T14:11:42.167Z,15.20
2023-04-07T14:14:11.902Z,15.33
2023-04-07T14:16:44.732Z,15.39
2023-04-07T14:19:14.727Z,15.25
2023-04-07T14:21:44.440Z,15.30
2023-04-07T14:24:14.231Z,15.23
2023-04-07T14:26:45.678Z,15.33
2023-04-07T14:29:16.106Z,15.04
2023-04-07T14:31:48.820Z,15.31
2023-04-07T14:34:18.658Z,15.13
2023-04-07T14:36:56.401Z,14.87
2023-04-07T14:39:26.945Z,14.71
2023-04-07T14:41:56.732Z,14.74
2023-04-07T14:44:26.500Z,14.90
2023-04-07T14:46:58.942Z,14.83
2023-04-07T14:49:29.053Z,15.15
2023-04-07T14:51:58.839Z,15.17
2023-04-07T14:54:28.810Z,15.19
2023-04-07T14:56:58.801Z,15.19
2023-04-07T14:59:28.580Z,15.08
2023-04-07T15:02:01.162Z,15.14
2023-04-07T15:04:31.088Z,15.01
2023-04-07T15:07:00.939Z,15.30
2023-04-07T15:09:31.437Z,15.25
2023-04-07T15:12:02.267Z,15.25
2023-04-07T15:14:32.385Z,15.24
2023-04-07T15:17:04.975Z,16.11
2023-04-07T15:19:34.747Z,15.52
2023-04-07T15:22:04.497Z,15.41
2023-04-07T15:24:34.245Z,15.32
2023-04-07T15:27:03.981Z,15.09
2023-04-07T15:29:33.724Z,15.23
2023-04-07T15:32:06.415Z,15.10
2023-04-07T15:34:36.202Z,14.98
2023-04-07T15:37:06.252Z,14.93
2023-04-07T15:39:36.106Z,15.00
2023-04-07T15:42:08.254Z,15.04
2023-04-07T15:44:39.927Z,14.96
2023-04-07T15:47:12.495Z,15.21
2023-04-07T15:49:42.508Z,15.46
2023-04-07T15:52:13.741Z,15.88
2023-04-07T15:54:43.542Z,15.87
2023-04-07T15:57:13.395Z,16.05
2023-04-07T15:59:43.135Z,15.98
2023-04-07T16:02:15.773Z,16.31
2023-04-07T16:04:47.574Z,16.51
2023-04-07T16:07:17.290Z,16.36
2023-04-07T16:09:47.003Z,16.12
2023-04-07T16:12:17.395Z,15.97
2023-04-07T16:14:47.366Z,15.78
2023-04-07T16:17:19.712Z,15.39
2023-04-07T16:19:49.514Z,14.95
2023-04-07T16:22:19.287Z,14.91
2023-04-07T16:24:49.038Z,14.82
2023-04-07T16:27:18.822Z,14.83
2023-04-07T16:29:48.777Z,14.77
2023-04-07T16:32:21.078Z,14.67
2023-04-07T16:34:50.978Z,14.74
2023-04-07T16:37:20.745Z,14.69
2023-04-07T16:39:50.772Z,14.64
2023-04-07T16:42:20.580Z,14.58
2023-04-07T16:44:50.390Z,14.57
2023-04-07T16:47:23.133Z,14.49
2023-04-07T16:49:53.131Z,14.53
2023-04-07T16:52:23.251Z,14.56
2023-04-07T16:54:53.258Z,14.54
2023-04-07T16:57:23.056Z,14.42
2023-04-07T16:59:52.970Z,14.47
2023-04-07T17:02:27.591Z,14.42
2023-04-07T17:04:57.576Z,14.34
2023-04-07T17:07:27.471Z,14.29
2023-04-07T17:09:57.303Z,14.03
2023-04-07T17:12:27.053Z,14.17
2023-04-07T17:14:56.775Z,13.96
2023-04-07T17:17:29.221Z,14.17
2023-04-07T17:19:59.873Z,13.92
2023-04-07T17:22:29.599Z,13.83
2023-04-07T17:24:59.341Z,13.91
2023-04-07T17:27:29.121Z,13.74
2023-04-07T17:29:59.361Z,13.69
2023-04-07T17:32:31.888Z,13.63
2023-04-07T17:35:01.659Z,13.59
2023-04-07T17:37:31.966Z,13.46
2023-04-07T17:40:01.897Z,13.40
2023-04-07T17:42:31.665Z,13.21
2023-04-07T17:45:01.967Z,13.04
2023-04-07T17:47:34.388Z,13.09
2023-04-07T17:50:04.616Z,13.05
2023-04-07T17:52:34.401Z,12.87
2023-04-07T17:55:06.804Z,12.89
2023-04-07T17:57:36.798Z,12.87
2023-04-07T18:00:08.238Z,12.78
2023-04-07T18:02:51.581Z,12.67
2023-04-07T18:05:23.715Z,12.68
2023-04-07T18:07:55.181Z,12.60
2023-04-07T18:10:26.585Z,12.63
2023-04-07T18:12:57.270Z,12.66
2023-04-07T18:15:28.507Z,12.61
2023-04-07T18:18:02.594Z,12.53
2023-04-07T18:20:34.829Z,12.47
2023-04-07T18:23:05.491Z,12.41
2023-04-07T18:25:37.737Z,12.38
2023-04-07T18:28:08.717Z,12.25
2023-04-07T18:30:39.564Z,12.34
2023-04-07T18:33:15.097Z,12.21
2023-04-07T18:35:55.946Z,12.12
2023-04-07T18:38:26.838Z,12.05
2023-04-07T18:40:58.672Z,12.05
2023-04-07T18:43:30.383Z,11.97
2023-04-07T18:46:00.772Z,11.87
2023-04-07T18:48:39.739Z,11.72
2023-04-07T18:51:10.424Z,11.67
2023-04-07T18:53:40.240Z,11.40
2023-04-07T18:56:10.097Z,11.64
2023-04-07T18:58:45.014Z,11.72
2023-04-07T19:01:15.925Z,11.74
2023-04-07T19:03:48.833Z,11.66
2023-04-07T19:06:19.642Z,11.56
2023-04-07T19:08:50.077Z,11.41
2023-04-07T19:11:20.696Z,11.49
2023-04-07T19:13:52.448Z,11.26
2023-04-07T19:16:24.631Z,11.18
2023-04-07T19:18:57.354Z,11.25
2023-04-07T19:21:27.729Z,11.24
2023-04-07T19:23:59.552Z,11.12
2023-04-07T19:26:29.765Z,10.99
2023-04-07T19:29:00.019Z,10.95
2023-04-07T19:31:29.823Z,10.66
2023-04-07T19:34:02.155Z,10.58
2023-04-07T19:36:33.039Z,10.40
2023-04-07T19:39:04.804Z,10.43
2023-04-07T19:41:34.652Z,10.41
2023-04-07T19:44:04.506Z,10.21
2023-04-07T19:46:34.811Z,10.33
2023-04-07T19:49:07.191Z,10.13
2023-04-07T19:51:36.960Z,10.13
2023-04-07T19:54:06.800Z,10.15
2023-04-07T19:56:36.541Z,10.01
2023-04-07T19:59:06.352Z,10.01
2023-04-07T20:01:36.159Z,9.94
2023-04-07T20:04:08.826Z,9.84
2023-04-07T20:06:40.691Z,9.71
2023-04-07T20:09:10.674Z,9.87
2023-04-07T20:11:40.472Z,9.67
2023-04-07T20:14:10.233Z,9.89
2023-04-07T20:16:40.113Z,9.75
2023-04-07T20:19:12.490Z,9.77
2023-04-07T20:21:42.279Z,9.78
2023-04-07T20:24:12.135Z,9.79
2023-04-07T20:26:42.033Z,9.68
2023-04-07T20:29:11.746Z,9.68
2023-04-07T20:31:41.546Z,9.62
2023-04-07T20:34:13.851Z,9.57
2023-04-07T20:36:43.711Z,9.67
2023-04-07T20:39:13.455Z,9.62
2023-04-07T20:41:45.263Z,9.35
2023-04-07T20:44:15.112Z,9.45
2023-04-07T20:46:47.015Z,9.11
2023-04-07T20:49:19.465Z,9.17
2023-04-07T20:51:49.178Z,9.09
2023-04-07T20:54:18.925Z,9.06
2023-04-07T20:56:48.643Z,8.93
2023-04-07T20:59:18.388Z,9.06
2023-04-07T21:01:48.389Z,8.84
2023-04-07T21:04:21.026Z,8.82
2023-04-07T21:06:51.005Z,8.87
2023-04-07T21:09:20.747Z,8.74
2023-04-07T21:11:50.489Z,8.64
2023-04-07T21:14:20.218Z,8.58
2023-04-07T21:16:50.009Z,8.60
2023-04-07T21:19:22.401Z,8.50
2023-04-07T21:21:52.160Z,8.34
2023-04-07T21:24:21.955Z,8.37
2023-04-07T21:26:51.790Z,8.47
2023-04-07T21:29:21.884Z,8.43
2023-04-07T21:31:51.651Z,8.38
2023-04-07T21:34:23.976Z,8.36
2023-04-07T21:36:53.762Z,8.31
2023-04-07T21:39:23.557Z,8.19
2023-04-07T21:41:53.316Z,8.08
2023-04-07T21:44:23.532Z,8.00
2023-04-07T21:46:53.450Z,8.07
2023-04-07T21:49:26.040Z,8.15
2023-04-07T21:51:55.790Z,8.02
2023-04-07T21:54:26.055Z,8.11
2023-04-07T21:56:57.303Z,8.26
2023-04-07T21:59:27.464Z,8.25
2023-04-07T22:02:00.684Z,8.25
2023-04-07T22:04:33.412Z,8.34
2023-04-07T22:07:04.064Z,8.35
2023-04-07T22:09:33.847Z,8.38
2023-04-07T22:12:03.645Z,8.59
2023-04-07T22:14:33.430Z,8.51
2023-04-07T22:17:03.830Z,8.60
2023-04-07T22:19:36.196Z,8.64
2023-04-07T22:22:07.825Z,8.57
2023-04-07T22:24:37.623Z,8.39
2023-04-07T22:27:07.382Z,8.55
2023-04-07T22:29:37.101Z,8.66
2023-04-07T22:32:06.998Z,8.69
2023-04-07T22:34:39.316Z,8.73
2023-04-07T22:37:09.041Z,8.68
2023-04-07T22:39:39.234Z,8.56
2023-04-07T22:42:08.983Z,8.54
2023-04-07T22:44:38.706Z,8.59
2023-04-07T22:47:09.249Z,8.58
2023-04-07T22:49:42.204Z,8.60
2023-04-07T22:52:11.986Z,8.64
2023-04-07T22:54:41.726Z,8.65
2023-04-07T22:57:11.570Z,8.57
2023-04-07T22:59:41.312Z,8.72
2023-04-07T23:02:11.191Z,8.47
2023-04-07T23:04:43.605Z,8.73
2023-04-07T23:07:13.343Z,8.68
2023-04-07T23:09:43.083Z,8.67
2023-04-07T23:12:12.848Z,8.55
2023-04-07T23:14:42.594Z,8.66
2023-04-07T23:17:12.481Z,8.48
2023-04-07T23:19:44.856Z,8.76
2023-04-07T23:22:14.722Z,8.76
2023-04-07T23:24:44.519Z,8.58
2023-04-07T23:27:14.226Z,8.56
2023-04-07T23:29:43.962Z,8.46
2023-04-07T23:32:14.062Z,8.24
2023-04-07T23:34:46.845Z,8.38
2023-04-07T23:37:16.645Z,8.52
2023-04-07T23:39:46.695Z,8.52
2023-04-07T23:42:18.101Z,8.52
2023-04-07T23:44:48.311Z,8.40
2023-04-07T23:47:18.119Z,8.29
2023-04-07T23:49:50.428Z,8.31
2023-04-07T23:52:21.653Z,8.30
2023-04-07T23:54:51.358Z,8.52
2023-04-07T23:57:21.085Z,8.59
2023-04-07T23:59:50.900Z,8.66
